Main page
METAR-TAF:

METAR-TAF

Airports :

Fernando de Noronha Airport

Fernando de Noronha, Pernambuco, Brazil

latitude: 03-51S, longitude: 032-25W, elevation: 56 m

Current weather observation

The report was made 28 minutes ago, at 10:00 UTC
Wind 12 kt from the Southeast, varying between East and South/Southeast
Temperature 28°C
Humidity 74%
Pressure 1013 hPa
Visibility 10 km or more
Few clouds at a height of 1800 ft

METAR: SBFN 141000Z 13012KT 090V160 9999 FEW018 28/23 Q1013

Time: 08:28 (10:28 UTC)

Forecast

The report was made 6 hours and 28 minutes ago, at 04:00 UTC
Forecast valid from 14 at 06 UTC to 14 at 18 UTC
Wind 15 kt from the Southeast
Visibility 10 km or more
Scattered clouds at a height of 2000 ft

TAF: SBFN 140400Z 1406/1418 13015KT 9999 SCT020 TN24/1406Z TX30/1414Z RMK PEH

Weather observations and forecasts of more than 4000 airports (METAR and TAF reports).

The available stations are represented by yellow and red dots on the map.

Hover mouse over dot to see the name of the station.

Then click to see weather observations and forecasts.

To change the map : click on the green buttons with a black cross to zoom in, on the green button with a dash to zoom out, or on the green arrows for adjacent maps.


METAR-TAF: